sensor_id;sensor_type;location;lat;lon;timestamp;P1;durP1;ratioP1;P2;durP2;ratioP2
16969;SDS011;8601;48.718;8.992;2023-05-07T00:01:02;5.33;;;2.60;;
16969;SDS011;8601;48.718;8.992;2023-05-07T00:03:30;5.03;;;3.03;;
16969;SDS011;8601;48.718;8.992;2023-05-07T00:05:57;3.20;;;2.77;;
16969;SDS011;8601;48.718;8.992;2023-05-07T00:08:25;5.00;;;2.70;;
16969;SDS011;8601;48.718;8.992;2023-05-07T00:10:53;3.23;;;2.60;;
16969;SDS011;8601;48.718;8.992;2023-05-07T00:13:20;4.17;;;2.60;;
16969;SDS011;8601;48.718;8.992;2023-05-07T00:15:47;3.70;;;3.10;;
16969;SDS011;8601;48.718;8.992;2023-05-07T00:18:15;3.07;;;2.63;;
16969;SDS011;8601;48.718;8.992;2023-05-07T00:20:46;3.70;;;3.00;;
16969;SDS011;8601;48.718;8.992;2023-05-07T00:23:12;3.73;;;2.90;;
16969;SDS011;8601;48.718;8.992;2023-05-07T00:25:40;4.27;;;3.27;;
16969;SDS011;8601;48.718;8.992;2023-05-07T00:28:08;3.30;;;2.87;;
16969;SDS011;8601;48.718;8.992;2023-05-07T00:30:35;3.80;;;2.73;;
16969;SDS011;8601;48.718;8.992;2023-05-07T00:33:02;3.10;;;2.70;;
16969;SDS011;8601;48.718;8.992;2023-05-07T00:35:29;3.13;;;2.83;;
16969;SDS011;8601;48.718;8.992;2023-05-07T00:37:57;4.47;;;3.40;;
16969;SDS011;8601;48.718;8.992;2023-05-07T00:40:26;4.80;;;3.53;;
16969;SDS011;8601;48.718;8.992;2023-05-07T00:42:53;4.40;;;4.00;;
16969;SDS011;8601;48.718;8.992;2023-05-07T00:45:23;5.77;;;4.57;;
16969;SDS011;8601;48.718;8.992;2023-05-07T00:47:53;4.80;;;4.30;;
16969;SDS011;8601;48.718;8.992;2023-05-07T00:50:21;4.93;;;4.00;;
16969;SDS011;8601;48.718;8.992;2023-05-07T00:52:48;3.70;;;3.40;;
16969;SDS011;8601;48.718;8.992;2023-05-07T00:55:15;4.60;;;3.33;;
16969;SDS011;8601;48.718;8.992;2023-05-07T00:57:43;4.53;;;3.30;;
16969;SDS011;8601;48.718;8.992;2023-05-07T01:00:11;6.73;;;3.73;;
16969;SDS011;8601;48.718;8.992;2023-05-07T01:02:40;4.43;;;3.23;;
16969;SDS011;8601;48.718;8.992;2023-05-07T01:05:08;3.03;;;2.73;;
16969;SDS011;8601;48.718;8.992;2023-05-07T01:07:36;4.07;;;3.60;;
16969;SDS011;8601;48.718;8.992;2023-05-07T01:10:04;4.40;;;4.00;;
16969;SDS011;8601;48.718;8.992;2023-05-07T01:12:32;6.77;;;4.47;;
16969;SDS011;8601;48.718;8.992;2023-05-07T01:15:01;4.20;;;3.80;;
16969;SDS011;8601;48.718;8.992;2023-05-07T01:17:28;3.60;;;3.30;;
16969;SDS011;8601;48.718;8.992;2023-05-07T01:19:59;3.60;;;3.30;;
16969;SDS011;8601;48.718;8.992;2023-05-07T01:22:30;3.90;;;3.30;;
16969;SDS011;8601;48.718;8.992;2023-05-07T01:24:58;4.17;;;3.53;;
16969;SDS011;8601;48.718;8.992;2023-05-07T01:27:26;4.63;;;3.83;;
16969;SDS011;8601;48.718;8.992;2023-05-07T01:29:53;3.90;;;3.50;;
16969;SDS011;8601;48.718;8.992;2023-05-07T01:32:23;3.57;;;3.27;;
16969;SDS011;8601;48.718;8.992;2023-05-07T01:34:56;3.67;;;3.37;;
16969;SDS011;8601;48.718;8.992;2023-05-07T01:37:24;6.43;;;3.30;;
16969;SDS011;8601;48.718;8.992;2023-05-07T01:39:53;4.67;;;3.50;;
16969;SDS011;8601;48.718;8.992;2023-05-07T01:42:21;3.60;;;3.30;;
16969;SDS011;8601;48.718;8.992;2023-05-07T01:44:48;3.70;;;3.40;;
16969;SDS011;8601;48.718;8.992;2023-05-07T01:47:16;5.13;;;3.63;;
16969;SDS011;8601;48.718;8.992;2023-05-07T01:49:43;3.90;;;3.60;;
16969;SDS011;8601;48.718;8.992;2023-05-07T01:52:10;4.63;;;3.90;;
16969;SDS011;8601;48.718;8.992;2023-05-07T01:54:37;5.13;;;4.00;;
16969;SDS011;8601;48.718;8.992;2023-05-07T01:57:05;5.13;;;4.07;;
16969;SDS011;8601;48.718;8.992;2023-05-07T01:59:33;6.23;;;4.30;;
16969;SDS011;8601;48.718;8.992;2023-05-07T02:02:00;5.90;;;4.83;;
16969;SDS011;8601;48.718;8.992;2023-05-07T02:04:27;5.93;;;4.87;;
16969;SDS011;8601;48.718;8.992;2023-05-07T02:06:54;5.23;;;4.37;;
16969;SDS011;8601;48.718;8.992;2023-05-07T02:09:21;5.20;;;4.53;;
16969;SDS011;8601;48.718;8.992;2023-05-07T02:11:48;5.10;;;4.50;;
16969;SDS011;8601;48.718;8.992;2023-05-07T02:14:16;5.30;;;4.60;;
16969;SDS011;8601;48.718;8.992;2023-05-07T02:16:45;6.97;;;4.57;;
16969;SDS011;8601;48.718;8.992;2023-05-07T02:19:12;7.23;;;5.43;;
16969;SDS011;8601;48.718;8.992;2023-05-07T02:21:39;6.40;;;4.60;;
16969;SDS011;8601;48.718;8.992;2023-05-07T02:24:05;7.70;;;4.70;;
16969;SDS011;8601;48.718;8.992;2023-05-07T02:26:32;5.50;;;5.00;;
16969;SDS011;8601;48.718;8.992;2023-05-07T02:28:59;4.83;;;4.23;;
16969;SDS011;8601;48.718;8.992;2023-05-07T02:31:31;5.13;;;4.23;;
16969;SDS011;8601;48.718;8.992;2023-05-07T02:33:58;5.03;;;4.00;;
16969;SDS011;8601;48.718;8.992;2023-05-07T02:36:26;4.63;;;3.90;;
16969;SDS011;8601;48.718;8.992;2023-05-07T02:38:53;4.73;;;3.50;;
16969;SDS011;8601;48.718;8.992;2023-05-07T02:41:20;3.73;;;3.37;;
16969;SDS011;8601;48.718;8.992;2023-05-07T02:43:47;8.03;;;4.10;;
16969;SDS011;8601;48.718;8.992;2023-05-07T02:46:14;4.90;;;3.50;;
16969;SDS011;8601;48.718;8.992;2023-05-07T02:48:42;5.73;;;3.80;;
16969;SDS011;8601;48.718;8.992;2023-05-07T02:51:10;3.80;;;3.40;;
16969;SDS011;8601;48.718;8.992;2023-05-07T02:53:37;5.33;;;3.60;;
16969;SDS011;8601;48.718;8.992;2023-05-07T02:56:04;4.10;;;3.70;;
16969;SDS011;8601;48.718;8.992;2023-05-07T02:58:31;4.90;;;3.60;;
16969;SDS011;8601;48.718;8.992;2023-05-07T03:00:58;4.53;;;3.30;;
16969;SDS011;8601;48.718;8.992;2023-05-07T03:03:25;4.10;;;3.70;;
16969;SDS011;8601;48.718;8.992;2023-05-07T03:05:53;4.23;;;3.83;;
16969;SDS011;8601;48.718;8.992;2023-05-07T03:08:20;5.47;;;3.70;;
16969;SDS011;8601;48.718;8.992;2023-05-07T03:10:47;5.30;;;3.97;;
16969;SDS011;8601;48.718;8.992;2023-05-07T03:13:15;4.13;;;3.73;;
16969;SDS011;8601;48.718;8.992;2023-05-07T03:15:42;4.00;;;3.40;;
16969;SDS011;8601;48.718;8.992;2023-05-07T03:18:09;4.80;;;3.73;;
16969;SDS011;8601;48.718;8.992;2023-05-07T03:20:35;3.73;;;3.43;;
16969;SDS011;8601;48.718;8.992;2023-05-07T03:23:10;3.80;;;3.33;;
16969;SDS011;8601;48.718;8.992;2023-05-07T03:25:36;3.27;;;3.07;;
16969;SDS011;8601;48.718;8.992;2023-05-07T03:28:03;4.07;;;3.33;;
16969;SDS011;8601;48.718;8.992;2023-05-07T03:30:31;3.50;;;3.20;;
16969;SDS011;8601;48.718;8.992;2023-05-07T03:32:58;4.70;;;3.57;;
16969;SDS011;8601;48.718;8.992;2023-05-07T03:35:25;3.37;;;3.07;;
16969;SDS011;8601;48.718;8.992;2023-05-07T03:37:52;3.83;;;3.30;;
16969;SDS011;8601;48.718;8.992;2023-05-07T03:40:20;3.63;;;3.33;;
16969;SDS011;8601;48.718;8.992;2023-05-07T03:42:47;4.03;;;3.63;;
16969;SDS011;8601;48.718;8.992;2023-05-07T03:45:14;5.17;;;3.20;;
16969;SDS011;8601;48.718;8.992;2023-05-07T03:47:41;4.07;;;3.33;;
16969;SDS011;8601;48.718;8.992;2023-05-07T03:50:08;3.87;;;3.10;;
16969;SDS011;8601;48.718;8.992;2023-05-07T03:52:36;3.67;;;3.37;;
16969;SDS011;8601;48.718;8.992;2023-05-07T03:55:03;6.00;;;3.67;;
16969;SDS011;8601;48.718;8.992;2023-05-07T03:57:32;3.30;;;3.00;;
16969;SDS011;8601;48.718;8.992;2023-05-07T03:59:59;3.87;;;3.43;;
16969;SDS011;8601;48.718;8.992;2023-05-07T04:02:26;3.57;;;3.27;;
16969;SDS011;8601;48.718;8.992;2023-05-07T04:04:53;5.80;;;3.90;;
16969;SDS011;8601;48.718;8.992;2023-05-07T04:07:19;5.20;;;3.60;;
16969;SDS011;8601;48.718;8.992;2023-05-07T04:09:46;3.77;;;3.40;;
16969;SDS011;8601;48.718;8.992;2023-05-07T04:12:13;4.07;;;3.67;;
16969;SDS011;8601;48.718;8.992;2023-05-07T04:14:42;3.97;;;3.63;;
16969;SDS011;8601;48.718;8.992;2023-05-07T04:17:11;4.63;;;3.43;;
16969;SDS011;8601;48.718;8.992;2023-05-07T04:19:38;4.40;;;3.57;;
16969;SDS011;8601;48.718;8.992;2023-05-07T04:22:10;4.47;;;3.80;;
16969;SDS011;8601;48.718;8.992;2023-05-07T04:24:37;3.60;;;3.30;;
16969;SDS011;8601;48.718;8.992;2023-05-07T04:27:04;3.97;;;3.60;;
16969;SDS011;8601;48.718;8.992;2023-05-07T04:29:31;4.40;;;3.53;;
16969;SDS011;8601;48.718;8.992;2023-05-07T04:32:00;4.10;;;3.43;;
16969;SDS011;8601;48.718;8.992;2023-05-07T04:34:27;3.70;;;3.50;;
16969;SDS011;8601;48.718;8.992;2023-05-07T04:36:54;4.00;;;3.60;;
16969;SDS011;8601;48.718;8.992;2023-05-07T04:39:23;5.00;;;3.70;;
16969;SDS011;8601;48.718;8.992;2023-05-07T04:41:50;4.63;;;3.43;;
16969;SDS011;8601;48.718;8.992;2023-05-07T04:44:18;4.43;;;4.10;;
16969;SDS011;8601;48.718;8.992;2023-05-07T04:46:45;3.90;;;3.50;;
16969;SDS011;8601;48.718;8.992;2023-05-07T04:49:14;5.90;;;4.37;;
16969;SDS011;8601;48.718;8.992;2023-05-07T04:51:40;4.93;;;3.87;;
16969;SDS011;8601;48.718;8.992;2023-05-07T04:54:08;3.87;;;3.47;;
16969;SDS011;8601;48.718;8.992;2023-05-07T04:56:35;4.33;;;3.73;;
16969;SDS011;8601;48.718;8.992;2023-05-07T04:59:03;3.90;;;3.60;;
16969;SDS011;8601;48.718;8.992;2023-05-07T05:01:30;3.93;;;3.30;;
16969;SDS011;8601;48.718;8.992;2023-05-07T05:03:57;4.07;;;3.40;;
16969;SDS011;8601;48.718;8.992;2023-05-07T05:06:27;3.77;;;3.33;;
16969;SDS011;8601;48.718;8.992;2023-05-07T05:08:55;5.37;;;3.73;;
16969;SDS011;8601;48.718;8.992;2023-05-07T05:11:22;4.10;;;3.80;;
16969;SDS011;8601;48.718;8.992;2023-05-07T05:13:50;4.93;;;3.60;;
16969;SDS011;8601;48.718;8.992;2023-05-07T05:16:17;4.50;;;3.63;;
16969;SDS011;8601;48.718;8.992;2023-05-07T05:18:45;4.00;;;3.50;;
16969;SDS011;8601;48.718;8.992;2023-05-07T05:21:12;4.93;;;3.30;;
16969;SDS011;8601;48.718;8.992;2023-05-07T05:23:41;4.00;;;3.70;;
16969;SDS011;8601;48.718;8.992;2023-05-07T05:26:08;4.20;;;3.80;;
16969;SDS011;8601;48.718;8.992;2023-05-07T05:28:35;3.47;;;3.17;;
16969;SDS011;8601;48.718;8.992;2023-05-07T05:31:02;4.17;;;3.77;;
16969;SDS011;8601;48.718;8.992;2023-05-07T05:33:29;3.73;;;3.20;;
16969;SDS011;8601;48.718;8.992;2023-05-07T05:35:56;3.93;;;3.47;;
16969;SDS011;8601;48.718;8.992;2023-05-07T05:38:23;5.30;;;3.93;;
16969;SDS011;8601;48.718;8.992;2023-05-07T05:40:51;4.33;;;3.93;;
16969;SDS011;8601;48.718;8.992;2023-05-07T05:43:18;4.23;;;3.83;;
16969;SDS011;8601;48.718;8.992;2023-05-07T05:45:47;4.70;;;4.30;;
16969;SDS011;8601;48.718;8.992;2023-05-07T05:48:13;4.13;;;3.73;;
16969;SDS011;8601;48.718;8.992;2023-05-07T05:50:41;4.50;;;4.10;;
16969;SDS011;8601;48.718;8.992;2023-05-07T05:53:08;4.30;;;3.90;;
16969;SDS011;8601;48.718;8.992;2023-05-07T05:55:35;5.80;;;4.30;;
16969;SDS011;8601;48.718;8.992;2023-05-07T05:58:03;4.60;;;4.20;;
16969;SDS011;8601;48.718;8.992;2023-05-07T06:00:30;4.80;;;4.40;;
16969;SDS011;8601;48.718;8.992;2023-05-07T06:02:57;4.53;;;4.13;;
16969;SDS011;8601;48.718;8.992;2023-05-07T06:05:24;4.70;;;4.30;;
16969;SDS011;8601;48.718;8.992;2023-05-07T06:07:51;4.57;;;4.17;;
16969;SDS011;8601;48.718;8.992;2023-05-07T06:10:18;6.30;;;4.27;;
16969;SDS011;8601;48.718;8.992;2023-05-07T06:12:45;4.30;;;3.90;;
16969;SDS011;8601;48.718;8.992;2023-05-07T06:15:13;6.80;;;3.97;;
16969;SDS011;8601;48.718;8.992;2023-05-07T06:17:40;5.20;;;4.27;;
16969;SDS011;8601;48.718;8.992;2023-05-07T06:20:08;4.53;;;4.07;;
16969;SDS011;8601;48.718;8.992;2023-05-07T06:22:35;5.00;;;4.20;;
16969;SDS011;8601;48.718;8.992;2023-05-07T06:25:02;5.17;;;4.23;;
16969;SDS011;8601;48.718;8.992;2023-05-07T06:27:29;8.47;;;4.87;;
16969;SDS011;8601;48.718;8.992;2023-05-07T06:29:56;5.27;;;3.97;;
16969;SDS011;8601;48.718;8.992;2023-05-07T06:32:24;8.00;;;4.80;;
16969;SDS011;8601;48.718;8.992;2023-05-07T06:34:52;4.23;;;3.10;;
16969;SDS011;8601;48.718;8.992;2023-05-07T06:37:19;3.67;;;3.10;;
16969;SDS011;8601;48.718;8.992;2023-05-07T06:39:46;3.77;;;3.20;;
16969;SDS011;8601;48.718;8.992;2023-05-07T06:42:13;4.67;;;3.30;;
16969;SDS011;8601;48.718;8.992;2023-05-07T06:44:42;4.03;;;3.37;;
16969;SDS011;8601;48.718;8.992;2023-05-07T06:47:08;3.80;;;3.40;;
16969;SDS011;8601;48.718;8.992;2023-05-07T06:49:37;3.60;;;3.30;;
16969;SDS011;8601;48.718;8.992;2023-05-07T06:52:03;3.63;;;3.30;;
16969;SDS011;8601;48.718;8.992;2023-05-07T06:54:30;3.50;;;3.20;;
16969;SDS011;8601;48.718;8.992;2023-05-07T06:56:58;3.07;;;2.87;;
16969;SDS011;8601;48.718;8.992;2023-05-07T06:59:26;3.30;;;3.00;;
16969;SDS011;8601;48.718;8.992;2023-05-07T07:01:53;3.43;;;3.13;;
16969;SDS011;8601;48.718;8.992;2023-05-07T07:04:19;3.47;;;3.03;;
16969;SDS011;8601;48.718;8.992;2023-05-07T07:06:49;3.37;;;2.63;;
16969;SDS011;8601;48.718;8.992;2023-05-07T07:09:17;4.50;;;3.20;;
16969;SDS011;8601;48.718;8.992;2023-05-07T07:11:44;3.77;;;3.37;;
16969;SDS011;8601;48.718;8.992;2023-05-07T07:14:11;3.23;;;2.93;;
16969;SDS011;8601;48.718;8.992;2023-05-07T07:16:39;3.40;;;2.97;;
16969;SDS011;8601;48.718;8.992;2023-05-07T07:19:06;3.40;;;2.80;;
16969;SDS011;8601;48.718;8.992;2023-05-07T07:21:33;3.77;;;3.20;;
16969;SDS011;8601;48.718;8.992;2023-05-07T07:24:01;3.50;;;3.20;;
16969;SDS011;8601;48.718;8.992;2023-05-07T07:26:28;3.73;;;2.90;;
16969;SDS011;8601;48.718;8.992;2023-05-07T07:28:55;3.90;;;3.50;;
16969;SDS011;8601;48.718;8.992;2023-05-07T07:31:21;4.20;;;3.37;;
16969;SDS011;8601;48.718;8.992;2023-05-07T07:33:48;4.13;;;3.50;;
16969;SDS011;8601;48.718;8.992;2023-05-07T07:36:15;3.23;;;2.93;;
16969;SDS011;8601;48.718;8.992;2023-05-07T07:38:42;4.37;;;2.87;;
16969;SDS011;8601;48.718;8.992;2023-05-07T07:41:10;3.40;;;3.07;;
16969;SDS011;8601;48.718;8.992;2023-05-07T07:43:37;3.30;;;2.80;;
16969;SDS011;8601;48.718;8.992;2023-05-07T07:46:04;4.53;;;3.20;;
16969;SDS011;8601;48.718;8.992;2023-05-07T07:48:31;3.10;;;2.80;;
16969;SDS011;8601;48.718;8.992;2023-05-07T07:50:58;3.37;;;2.67;;
16969;SDS011;8601;48.718;8.992;2023-05-07T07:53:25;3.90;;;2.80;;
16969;SDS011;8601;48.718;8.992;2023-05-07T07:55:52;4.30;;;3.00;;
16969;SDS011;8601;48.718;8.992;2023-05-07T07:58:20;3.00;;;2.73;;
16969;SDS011;8601;48.718;8.992;2023-05-07T08:00:49;2.87;;;2.47;;
16969;SDS011;8601;48.718;8.992;2023-05-07T08:03:16;2.53;;;2.33;;
16969;SDS011;8601;48.718;8.992;2023-05-07T08:05:44;3.03;;;2.73;;
16969;SDS011;8601;48.718;8.992;2023-05-07T08:08:11;3.27;;;2.20;;
16969;SDS011;8601;48.718;8.992;2023-05-07T08:10:38;5.00;;;2.60;;
16969;SDS011;8601;48.718;8.992;2023-05-07T08:13:05;4.37;;;2.50;;
16969;SDS011;8601;48.718;8.992;2023-05-07T08:15:34;3.20;;;2.20;;
16969;SDS011;8601;48.718;8.992;2023-05-07T08:18:01;3.43;;;2.40;;
16969;SDS011;8601;48.718;8.992;2023-05-07T08:20:28;3.83;;;2.63;;
16969;SDS011;8601;48.718;8.992;2023-05-07T08:22:55;3.47;;;2.60;;
16969;SDS011;8601;48.718;8.992;2023-05-07T08:25:22;2.87;;;2.30;;
16969;SDS011;8601;48.718;8.992;2023-05-07T08:27:49;2.80;;;1.80;;
16969;SDS011;8601;48.718;8.992;2023-05-07T08:30:16;2.20;;;2.00;;
16969;SDS011;8601;48.718;8.992;2023-05-07T08:32:44;2.60;;;2.40;;
16969;SDS011;8601;48.718;8.992;2023-05-07T08:35:11;3.03;;;1.90;;
16969;SDS011;8601;48.718;8.992;2023-05-07T08:37:38;4.37;;;1.90;;
16969;SDS011;8601;48.718;8.992;2023-05-07T08:40:06;2.13;;;1.90;;
16969;SDS011;8601;48.718;8.992;2023-05-07T08:42:35;2.33;;;1.90;;
16969;SDS011;8601;48.718;8.992;2023-05-07T08:45:03;3.67;;;2.03;;
16969;SDS011;8601;48.718;8.992;2023-05-07T08:47:34;2.27;;;2.07;;
16969;SDS011;8601;48.718;8.992;2023-05-07T08:50:08;2.50;;;1.97;;
16969;SDS011;8601;48.718;8.992;2023-05-07T08:52:36;2.50;;;2.00;;
16969;SDS011;8601;48.718;8.992;2023-05-07T08:55:03;3.77;;;2.00;;
16969;SDS011;8601;48.718;8.992;2023-05-07T08:57:31;2.30;;;1.80;;
16969;SDS011;8601;48.718;8.992;2023-05-07T08:59:59;3.13;;;2.00;;
16969;SDS011;8601;48.718;8.992;2023-05-07T09:02:25;2.63;;;2.07;;
16969;SDS011;8601;48.718;8.992;2023-05-07T09:04:52;2.03;;;1.93;;
16969;SDS011;8601;48.718;8.992;2023-05-07T09:07:21;2.50;;;1.80;;
16969;SDS011;8601;48.718;8.992;2023-05-07T09:09:48;2.40;;;1.60;;
16969;SDS011;8601;48.718;8.992;2023-05-07T09:12:17;2.70;;;1.90;;
16969;SDS011;8601;48.718;8.992;2023-05-07T09:14:44;2.97;;;1.90;;
16969;SDS011;8601;48.718;8.992;2023-05-07T09:17:11;2.77;;;2.03;;
16969;SDS011;8601;48.718;8.992;2023-05-07T09:19:39;3.23;;;1.90;;
16969;SDS011;8601;48.718;8.992;2023-05-07T09:22:06;3.00;;;1.90;;
16969;SDS011;8601;48.718;8.992;2023-05-07T09:24:34;2.37;;;1.67;;
16969;SDS011;8601;48.718;8.992;2023-05-07T09:27:03;2.00;;;1.80;;
16969;SDS011;8601;48.718;8.992;2023-05-07T09:29:30;2.67;;;1.87;;
16969;SDS011;8601;48.718;8.992;2023-05-07T09:32:00;3.80;;;2.30;;
16969;SDS011;8601;48.718;8.992;2023-05-07T09:34:35;3.90;;;1.70;;
16969;SDS011;8601;48.718;8.992;2023-05-07T09:37:02;3.77;;;1.73;;
16969;SDS011;8601;48.718;8.992;2023-05-07T09:39:39;2.23;;;2.03;;
16969;SDS011;8601;48.718;8.992;2023-05-07T09:42:07;2.80;;;2.20;;
16969;SDS011;8601;48.718;8.992;2023-05-07T09:44:34;2.53;;;1.87;;
16969;SDS011;8601;48.718;8.992;2023-05-07T09:47:01;3.70;;;2.20;;
16969;SDS011;8601;48.718;8.992;2023-05-07T09:49:33;3.93;;;2.20;;
16969;SDS011;8601;48.718;8.992;2023-05-07T09:52:01;2.20;;;2.00;;
16969;SDS011;8601;48.718;8.992;2023-05-07T09:54:31;3.03;;;1.90;;
16969;SDS011;8601;48.718;8.992;2023-05-07T09:57:01;2.13;;;1.93;;
16969;SDS011;8601;48.718;8.992;2023-05-07T09:59:29;3.03;;;2.30;;
16969;SDS011;8601;48.718;8.992;2023-05-07T10:01:59;3.47;;;2.00;;
16969;SDS011;8601;48.718;8.992;2023-05-07T10:04:27;3.30;;;2.10;;
16969;SDS011;8601;48.718;8.992;2023-05-07T10:06:55;2.93;;;1.90;;
16969;SDS011;8601;48.718;8.992;2023-05-07T10:09:23;2.80;;;2.27;;
16969;SDS011;8601;48.718;8.992;2023-05-07T10:11:51;3.13;;;2.23;;
16969;SDS011;8601;48.718;8.992;2023-05-07T10:14:21;3.63;;;2.40;;
16969;SDS011;8601;48.718;8.992;2023-05-07T10:16:48;3.80;;;1.90;;
16969;SDS011;8601;48.718;8.992;2023-05-07T10:19:15;3.10;;;2.23;;
16969;SDS011;8601;48.718;8.992;2023-05-07T10:21:44;2.20;;;2.00;;
16969;SDS011;8601;48.718;8.992;2023-05-07T10:24:16;2.73;;;1.93;;
16969;SDS011;8601;48.718;8.992;2023-05-07T10:26:48;2.83;;;2.07;;
16969;SDS011;8601;48.718;8.992;2023-05-07T10:29:18;5.60;;;2.00;;
16969;SDS011;8601;48.718;8.992;2023-05-07T10:31:55;3.80;;;1.83;;
16969;SDS011;8601;48.718;8.992;2023-05-07T10:34:28;2.13;;;1.77;;
16969;SDS011;8601;48.718;8.992;2023-05-07T10:37:00;3.47;;;1.67;;
16969;SDS011;8601;48.718;8.992;2023-05-07T10:39:29;2.87;;;1.90;;
16969;SDS011;8601;48.718;8.992;2023-05-07T10:41:56;3.15;;;2.15;;
16969;SDS011;8601;48.718;8.992;2023-05-07T10:44:34;2.92;;;2.03;;
16969;SDS011;8601;48.718;8.992;2023-05-07T10:47:05;2.70;;;2.10;;
16969;SDS011;8601;48.718;8.992;2023-05-07T10:49:34;3.93;;;2.10;;
16969;SDS011;8601;48.718;8.992;2023-05-07T10:52:11;2.33;;;1.90;;
16969;SDS011;8601;48.718;8.992;2023-05-07T10:54:39;5.40;;;2.00;;
16969;SDS011;8601;48.718;8.992;2023-05-07T11:00:05;2.10;;;1.90;;
16969;SDS011;8601;48.718;8.992;2023-05-07T11:03:08;2.80;;;1.93;;
16969;SDS011;8601;48.718;8.992;2023-05-07T11:05:35;2.60;;;1.60;;
16969;SDS011;8601;48.718;8.992;2023-05-07T11:08:03;1.83;;;1.53;;
16969;SDS011;8601;48.718;8.992;2023-05-07T11:13:18;4.80;;;2.20;;
16969;SDS011;8601;48.718;8.992;2023-05-07T11:16:17;2.83;;;1.93;;
16969;SDS011;8601;48.718;8.992;2023-05-07T11:18:45;2.27;;;1.93;;
16969;SDS011;8601;48.718;8.992;2023-05-07T11:21:13;3.17;;;2.10;;
16969;SDS011;8601;48.718;8.992;2023-05-07T11:23:59;3.20;;;2.07;;
16969;SDS011;8601;48.718;8.992;2023-05-07T11:26:27;2.73;;;2.00;;
16969;SDS011;8601;48.718;8.992;2023-05-07T11:28:56;3.60;;;2.00;;
16969;SDS011;8601;48.718;8.992;2023-05-07T11:31:27;2.93;;;1.90;;
16969;SDS011;8601;48.718;8.992;2023-05-07T11:33:54;2.53;;;1.80;;
16969;SDS011;8601;48.718;8.992;2023-05-07T11:36:22;3.50;;;2.40;;
16969;SDS011;8601;48.718;8.992;2023-05-07T11:38:51;3.00;;;2.00;;
16969;SDS011;8601;48.718;8.992;2023-05-07T11:41:17;1.90;;;1.70;;
16969;SDS011;8601;48.718;8.992;2023-05-07T11:43:56;4.33;;;2.20;;
16969;SDS011;8601;48.718;8.992;2023-05-07T11:46:24;3.63;;;2.27;;
16969;SDS011;8601;48.718;8.992;2023-05-07T11:48:56;2.57;;;1.90;;
16969;SDS011;8601;48.718;8.992;2023-05-07T11:51:25;2.73;;;2.30;;
16969;SDS011;8601;48.718;8.992;2023-05-07T11:53:52;6.97;;;2.73;;
16969;SDS011;8601;48.718;8.992;2023-05-07T11:56:19;6.80;;;3.33;;
16969;SDS011;8601;48.718;8.992;2023-05-07T11:58:47;3.27;;;2.53;;
16969;SDS011;8601;48.718;8.992;2023-05-07T12:01:14;22.20;;;6.07;;
16969;SDS011;8601;48.718;8.992;2023-05-07T12:03:45;5.77;;;2.30;;
16969;SDS011;8601;48.718;8.992;2023-05-07T12:06:13;5.33;;;2.40;;
16969;SDS011;8601;48.718;8.992;2023-05-07T12:08:41;5.33;;;1.73;;
16969;SDS011;8601;48.718;8.992;2023-05-07T12:11:09;4.77;;;2.40;;
16969;SDS011;8601;48.718;8.992;2023-05-07T12:13:45;3.23;;;1.50;;
16969;SDS011;8601;48.718;8.992;2023-05-07T12:16:12;9.07;;;2.43;;
16969;SDS011;8601;48.718;8.992;2023-05-07T12:18:40;6.27;;;2.40;;
16969;SDS011;8601;48.718;8.992;2023-05-07T12:21:08;10.03;;;2.53;;
16969;SDS011;8601;48.718;8.992;2023-05-07T12:23:36;7.70;;;2.53;;
16969;SDS011;8601;48.718;8.992;2023-05-07T12:26:04;5.37;;;2.43;;
16969;SDS011;8601;48.718;8.992;2023-05-07T12:28:35;5.47;;;2.60;;
16969;SDS011;8601;48.718;8.992;2023-05-07T12:31:05;4.47;;;2.20;;
16969;SDS011;8601;48.718;8.992;2023-05-07T12:33:33;3.30;;;2.30;;
16969;SDS011;8601;48.718;8.992;2023-05-07T12:36:02;6.07;;;2.57;;
16969;SDS011;8601;48.718;8.992;2023-05-07T12:38:36;4.10;;;2.37;;
16969;SDS011;8601;48.718;8.992;2023-05-07T12:41:05;4.23;;;2.63;;
16969;SDS011;8601;48.718;8.992;2023-05-07T12:43:34;3.27;;;2.53;;
16969;SDS011;8601;48.718;8.992;2023-05-07T12:46:03;3.53;;;2.47;;
16969;SDS011;8601;48.718;8.992;2023-05-07T12:48:31;3.10;;;2.27;;
16969;SDS011;8601;48.718;8.992;2023-05-07T12:50:59;5.57;;;2.70;;
16969;SDS011;8601;48.718;8.992;2023-05-07T12:53:28;3.03;;;2.30;;
16969;SDS011;8601;48.718;8.992;2023-05-07T12:55:58;3.93;;;2.00;;
16969;SDS011;8601;48.718;8.992;2023-05-07T12:58:26;3.00;;;2.13;;
16969;SDS011;8601;48.718;8.992;2023-05-07T13:00:54;2.90;;;2.53;;
16969;SDS011;8601;48.718;8.992;2023-05-07T13:03:24;3.60;;;2.40;;
16969;SDS011;8601;48.718;8.992;2023-05-07T13:05:53;4.13;;;2.60;;
16969;SDS011;8601;48.718;8.992;2023-05-07T13:08:25;5.43;;;2.67;;
16969;SDS011;8601;48.718;8.992;2023-05-07T13:10:52;3.90;;;3.40;;
16969;SDS011;8601;48.718;8.992;2023-05-07T13:13:21;4.90;;;3.27;;
16969;SDS011;8601;48.718;8.992;2023-05-07T13:15:48;4.43;;;3.00;;
16969;SDS011;8601;48.718;8.992;2023-05-07T13:18:15;3.83;;;3.23;;
16969;SDS011;8601;48.718;8.992;2023-05-07T13:20:42;3.97;;;2.97;;
16969;SDS011;8601;48.718;8.992;2023-05-07T13:23:08;3.47;;;2.53;;
16969;SDS011;8601;48.718;8.992;2023-05-07T13:25:35;4.33;;;2.90;;
16969;SDS011;8601;48.718;8.992;2023-05-07T13:28:02;3.40;;;3.10;;
16969;SDS011;8601;48.718;8.992;2023-05-07T13:30:31;4.47;;;2.77;;
16969;SDS011;8601;48.718;8.992;2023-05-07T13:32:58;5.83;;;2.57;;
16969;SDS011;8601;48.718;8.992;2023-05-07T13:35:25;3.30;;;3.00;;
16969;SDS011;8601;48.718;8.992;2023-05-07T13:37:52;3.27;;;2.47;;
16969;SDS011;8601;48.718;8.992;2023-05-07T13:40:19;4.83;;;3.47;;
16969;SDS011;8601;48.718;8.992;2023-05-07T13:42:47;3.30;;;3.00;;
16969;SDS011;8601;48.718;8.992;2023-05-07T13:45:14;3.57;;;3.00;;
16969;SDS011;8601;48.718;8.992;2023-05-07T13:47:42;2.90;;;2.60;;
16969;SDS011;8601;48.718;8.992;2023-05-07T13:50:10;3.10;;;2.80;;
16969;SDS011;8601;48.718;8.992;2023-05-07T13:52:38;3.40;;;2.70;;
16969;SDS011;8601;48.718;8.992;2023-05-07T13:55:08;3.87;;;2.83;;
16969;SDS011;8601;48.718;8.992;2023-05-07T13:57:35;3.57;;;2.97;;
16969;SDS011;8601;48.718;8.992;2023-05-07T14:00:03;4.63;;;3.17;;
16969;SDS011;8601;48.718;8.992;2023-05-07T14:02:31;4.70;;;3.20;;
16969;SDS011;8601;48.718;8.992;2023-05-07T14:04:59;7.10;;;3.47;;
16969;SDS011;8601;48.718;8.992;2023-05-07T14:07:27;5.47;;;3.50;;
16969;SDS011;8601;48.718;8.992;2023-05-07T14:09:54;4.70;;;3.27;;
16969;SDS011;8601;48.718;8.992;2023-05-07T14:12:21;3.23;;;2.90;;
16969;SDS011;8601;48.718;8.992;2023-05-07T14:14:48;4.47;;;3.13;;
16969;SDS011;8601;48.718;8.992;2023-05-07T14:17:16;6.67;;;4.17;;
16969;SDS011;8601;48.718;8.992;2023-05-07T14:19:46;6.20;;;3.33;;
16969;SDS011;8601;48.718;8.992;2023-05-07T14:22:14;5.13;;;3.70;;
16969;SDS011;8601;48.718;8.992;2023-05-07T14:24:41;7.07;;;4.87;;
16969;SDS011;8601;48.718;8.992;2023-05-07T14:27:08;8.97;;;6.17;;
16969;SDS011;8601;48.718;8.992;2023-05-07T14:29:35;8.67;;;5.47;;
16969;SDS011;8601;48.718;8.992;2023-05-07T14:32:02;6.87;;;4.77;;
16969;SDS011;8601;48.718;8.992;2023-05-07T14:34:30;5.87;;;4.10;;
16969;SDS011;8601;48.718;8.992;2023-05-07T14:36:58;4.57;;;3.30;;
16969;SDS011;8601;48.718;8.992;2023-05-07T14:39:28;5.03;;;4.00;;
16969;SDS011;8601;48.718;8.992;2023-05-07T14:41:55;3.33;;;2.90;;
16969;SDS011;8601;48.718;8.992;2023-05-07T14:44:25;3.80;;;2.73;;
16969;SDS011;8601;48.718;8.992;2023-05-07T14:46:51;5.40;;;3.13;;
16969;SDS011;8601;48.718;8.992;2023-05-07T14:49:18;3.80;;;2.83;;
16969;SDS011;8601;48.718;8.992;2023-05-07T14:51:45;4.03;;;2.50;;
16969;SDS011;8601;48.718;8.992;2023-05-07T14:54:14;4.07;;;3.00;;
16969;SDS011;8601;48.718;8.992;2023-05-07T14:56:44;4.43;;;3.20;;
16969;SDS011;8601;48.718;8.992;2023-05-07T14:59:13;4.00;;;3.00;;
16969;SDS011;8601;48.718;8.992;2023-05-07T15:01:42;5.00;;;3.63;;
16969;SDS011;8601;48.718;8.992;2023-05-07T15:04:10;5.07;;;3.23;;
16969;SDS011;8601;48.718;8.992;2023-05-07T15:06:39;5.10;;;3.57;;
16969;SDS011;8601;48.718;8.992;2023-05-07T15:09:07;5.87;;;3.93;;
16969;SDS011;8601;48.718;8.992;2023-05-07T15:11:36;4.27;;;3.83;;